createdAt,value
2023-01-23T00:00:03.393Z,11.53
2023-01-23T00:02:31.563Z,12.50
2023-01-23T00:04:59.373Z,12.87
2023-01-23T00:07:27.631Z,10.40
2023-01-23T00:09:55.413Z,9.83
2023-01-23T00:12:23.160Z,11.17
2023-01-23T00:14:52.225Z,10.37
2023-01-23T00:17:19.971Z,10.37
2023-01-23T00:19:47.714Z,10.60
2023-01-23T00:22:15.983Z,11.57
2023-01-23T00:24:43.692Z,9.30
2023-01-23T00:27:11.588Z,10.40
2023-01-23T00:29:39.408Z,9.63
2023-01-23T00:32:08.569Z,7.67
2023-01-23T00:34:36.336Z,10.13
2023-01-23T00:37:04.105Z,9.10
2023-01-23T00:39:31.995Z,8.50
2023-01-23T00:41:59.812Z,10.00
2023-01-23T00:44:27.648Z,10.97
2023-01-23T00:46:55.375Z,11.50
2023-01-23T00:49:24.797Z,9.63
2023-01-23T00:51:53.065Z,9.40
2023-01-23T00:54:21.691Z,7.77
2023-01-23T00:56:49.884Z,9.37
2023-01-23T00:59:17.643Z,8.03
2023-01-23T01:01:45.793Z,8.97
2023-01-23T01:04:13.602Z,8.97
2023-01-23T01:06:42.775Z,8.63
2023-01-23T01:09:10.560Z,8.97
2023-01-23T01:11:38.352Z,8.77
2023-01-23T01:14:06.604Z,9.13
2023-01-23T01:16:35.279Z,14.80
2023-01-23T01:19:03.181Z,10.60
2023-01-23T01:21:31.286Z,10.27
2023-01-23T01:24:00.446Z,8.70
2023-01-23T01:26:28.172Z,9.23
2023-01-23T01:28:56.000Z,12.80
2023-01-23T01:31:24.595Z,9.27
2023-01-23T01:33:52.656Z,11.97
2023-01-23T01:36:22.182Z,9.90
2023-01-23T01:38:50.030Z,9.60
2023-01-23T01:41:19.295Z,8.43
2023-01-23T01:43:47.299Z,8.17
2023-01-23T01:46:20.488Z,10.27
2023-01-23T01:49:00.698Z,8.43
2023-01-23T01:51:34.967Z,8.13
2023-01-23T01:54:08.588Z,7.17
2023-01-23T01:56:43.800Z,9.13
2023-01-23T01:59:13.111Z,10.40
2023-01-23T02:01:44.235Z,8.30
2023-01-23T02:04:12.470Z,12.60
2023-01-23T02:06:40.420Z,9.23
2023-01-23T02:09:16.312Z,9.73
2023-01-23T02:11:45.712Z,8.03
2023-01-23T02:14:14.539Z,7.27
2023-01-23T02:16:46.594Z,7.93
2023-01-23T02:19:24.393Z,7.30
2023-01-23T02:21:58.100Z,10.77
2023-01-23T02:24:33.325Z,9.77
2023-01-23T02:27:03.290Z,11.10
2023-01-23T02:29:41.843Z,8.57
2023-01-23T02:32:09.793Z,9.23
2023-01-23T02:34:38.831Z,10.50
2023-01-23T02:37:08.295Z,10.30
2023-01-23T02:39:37.507Z,9.80
2023-01-23T02:42:07.731Z,6.80
2023-01-23T02:44:35.575Z,11.27
2023-01-23T02:47:07.875Z,9.90
2023-01-23T02:49:35.679Z,8.60
2023-01-23T02:52:03.522Z,9.77
2023-01-23T02:54:31.802Z,9.70
2023-01-23T02:56:59.709Z,7.97
2023-01-23T02:59:46.481Z,9.87
2023-01-23T03:02:14.531Z,9.63
2023-01-23T03:04:42.543Z,8.90
2023-01-23T03:07:10.336Z,9.73
2023-01-23T03:09:38.146Z,10.27
2023-01-23T03:12:06.139Z,12.80
2023-01-23T03:14:35.268Z,9.03
2023-01-23T03:17:03.129Z,9.23
2023-01-23T03:19:31.303Z,9.50
2023-01-23T03:21:59.361Z,12.67
2023-01-23T03:24:27.176Z,10.63
2023-01-23T03:26:55.002Z,8.97
2023-01-23T03:29:42.231Z,12.40
2023-01-23T03:32:13.175Z,9.57
2023-01-23T03:34:41.585Z,9.30
2023-01-23T03:37:10.804Z,13.43
2023-01-23T03:39:56.429Z,12.73
2023-01-23T03:42:24.310Z,8.13
2023-01-23T03:44:53.041Z,11.90
2023-01-23T03:47:22.138Z,13.80
2023-01-23T03:49:49.917Z,13.57
2023-01-23T03:52:17.700Z,12.03
2023-01-23T03:54:45.714Z,9.83
2023-01-23T03:57:13.534Z,10.23
2023-01-23T03:59:41.381Z,9.33
2023-01-23T04:02:09.240Z,13.70
2023-01-23T04:04:38.446Z,12.70
2023-01-23T04:07:06.808Z,11.23
2023-01-23T04:09:34.569Z,15.93
2023-01-23T04:12:02.679Z,12.37
2023-01-23T04:14:35.360Z,8.97
2023-01-23T04:17:03.135Z,10.93
2023-01-23T04:19:31.033Z,9.53
2023-01-23T04:22:00.482Z,10.30
2023-01-23T04:24:28.915Z,11.97
2023-01-23T04:26:57.074Z,15.53
2023-01-23T04:29:25.027Z,9.00
2023-01-23T04:31:52.831Z,18.33
2023-01-23T04:34:20.611Z,10.73
2023-01-23T04:36:48.299Z,12.83
2023-01-23T04:39:17.399Z,10.40
2023-01-23T04:41:45.176Z,11.60
2023-01-23T04:44:21.947Z,9.80
2023-01-23T04:46:50.858Z,13.23
2023-01-23T04:49:19.555Z,10.47
2023-01-23T04:51:48.405Z,12.03
2023-01-23T04:54:18.618Z,11.20
2023-01-23T04:56:47.210Z,10.83
2023-01-23T04:59:16.764Z,10.10
2023-01-23T05:01:45.320Z,10.53
2023-01-23T05:04:13.285Z,10.47
2023-01-23T05:06:41.062Z,11.37
2023-01-23T05:09:08.803Z,11.03
2023-01-23T05:11:37.959Z,13.23
2023-01-23T05:14:05.749Z,12.03
2023-01-23T05:16:33.657Z,12.10
2023-01-23T05:19:01.464Z,12.37
2023-01-23T05:21:29.357Z,12.10
2023-01-23T05:23:57.087Z,12.00
2023-01-23T05:26:25.017Z,9.40
2023-01-23T05:28:54.154Z,9.27
2023-01-23T05:31:22.033Z,8.23
2023-01-23T05:33:49.876Z,12.53
2023-01-23T05:36:18.658Z,11.53
2023-01-23T05:38:46.793Z,11.30
2023-01-23T05:41:14.530Z,11.13
2023-01-23T05:43:42.467Z,9.93
2023-01-23T05:46:11.681Z,9.70
2023-01-23T05:48:39.454Z,8.60
2023-01-23T05:51:07.374Z,15.33
2023-01-23T05:53:35.126Z,10.63
2023-01-23T05:56:06.820Z,10.33
2023-01-23T05:58:34.814Z,12.80
2023-01-23T06:01:03.453Z,11.97
2023-01-23T06:03:32.688Z,10.63
2023-01-23T06:06:02.041Z,12.50
2023-01-23T06:08:30.171Z,13.07
2023-01-23T06:10:59.569Z,12.80
2023-01-23T06:13:27.873Z,12.10
2023-01-23T06:15:56.352Z,12.87
2023-01-23T06:18:24.379Z,13.23
2023-01-23T06:20:58.641Z,14.27
2023-01-23T06:23:26.395Z,13.87
2023-01-23T06:25:54.172Z,9.93
2023-01-23T06:28:22.112Z,12.70
2023-01-23T06:30:49.898Z,13.77
2023-01-23T06:33:17.701Z,14.27
2023-01-23T06:35:45.434Z,12.93
2023-01-23T06:38:14.489Z,12.33
2023-01-23T06:40:42.236Z,12.90
2023-01-23T06:43:15.024Z,15.00
2023-01-23T06:45:45.704Z,11.90
2023-01-23T06:48:13.727Z,16.33
2023-01-23T06:50:41.798Z,17.13
2023-01-23T06:53:09.792Z,15.00
2023-01-23T06:55:39.152Z,14.00
2023-01-23T06:58:07.014Z,14.17
2023-01-23T07:00:35.051Z,12.20
2023-01-23T07:03:04.031Z,12.07
2023-01-23T07:05:32.259Z,14.50
2023-01-23T07:07:59.960Z,15.60
2023-01-23T07:10:27.731Z,11.77
2023-01-23T07:12:56.821Z,17.93
2023-01-23T07:15:24.660Z,11.50
2023-01-23T07:17:52.465Z,11.93
2023-01-23T07:20:20.823Z,14.53
2023-01-23T07:22:50.007Z,12.37
2023-01-23T07:25:17.854Z,12.30
2023-01-23T07:27:45.607Z,13.13
2023-01-23T07:30:15.195Z,14.23
2023-01-23T07:32:42.955Z,13.47
2023-01-23T07:35:11.345Z,12.07
2023-01-23T07:37:39.136Z,12.73
2023-01-23T07:40:07.851Z,12.93
2023-01-23T07:42:35.644Z,12.97
2023-01-23T07:45:03.601Z,17.00
2023-01-23T07:47:32.689Z,13.00
2023-01-23T07:50:00.769Z,11.67
2023-01-23T07:52:28.521Z,11.03
2023-01-23T07:54:56.377Z,13.67
2023-01-23T07:57:24.299Z,11.00
2023-01-23T07:59:52.019Z,13.07
2023-01-23T08:02:19.765Z,13.60
2023-01-23T08:04:49.120Z,12.70
2023-01-23T08:07:16.937Z,11.83
2023-01-23T08:09:44.842Z,13.97
2023-01-23T08:12:13.594Z,12.20
2023-01-23T08:14:41.793Z,13.63
2023-01-23T08:17:09.561Z,14.70
2023-01-23T08:19:37.414Z,13.93
2023-01-23T08:22:07.020Z,13.50
2023-01-23T08:24:34.782Z,11.37
2023-01-23T08:27:02.602Z,12.53
2023-01-23T08:29:30.351Z,12.17
2023-01-23T08:31:58.342Z,12.63
2023-01-23T08:34:26.713Z,13.77
2023-01-23T08:36:54.433Z,10.20
2023-01-23T08:39:24.544Z,12.27
2023-01-23T08:41:52.460Z,15.20
2023-01-23T08:44:20.243Z,12.27
2023-01-23T08:46:48.131Z,12.77
2023-01-23T08:49:19.544Z,12.40
2023-01-23T08:51:47.577Z,14.50
2023-01-23T08:54:15.578Z,14.37
2023-01-23T08:56:44.677Z,15.13
2023-01-23T08:59:12.685Z,11.17
2023-01-23T09:01:40.892Z,13.50
2023-01-23T09:04:08.646Z,11.43
2023-01-23T09:06:36.432Z,12.93
2023-01-23T09:09:04.367Z,13.23
2023-01-23T09:11:32.563Z,14.50
2023-01-23T09:14:01.664Z,12.33
2023-01-23T09:16:29.570Z,15.60
2023-01-23T09:18:57.404Z,14.10
2023-01-23T09:21:25.219Z,16.20
2023-01-23T09:23:52.944Z,14.50
2023-01-23T09:26:20.791Z,13.50
2023-01-23T09:28:48.565Z,15.43
2023-01-23T09:31:17.819Z,16.37
2023-01-23T09:33:45.765Z,13.13
2023-01-23T09:36:13.636Z,14.77
2023-01-23T09:38:41.478Z,15.30
2023-01-23T09:41:12.650Z,14.10
2023-01-23T09:43:46.812Z,17.67
2023-01-23T09:46:21.664Z,14.47
2023-01-23T09:48:54.687Z,15.50
2023-01-23T09:51:28.269Z,16.03
2023-01-23T09:54:02.361Z,15.50
2023-01-23T09:56:32.762Z,14.10
2023-01-23T09:59:07.435Z,18.17
2023-01-23T10:01:38.032Z,13.20
2023-01-23T10:04:06.680Z,13.37
2023-01-23T10:06:55.668Z,12.33
2023-01-23T10:09:39.315Z,13.27
2023-01-23T10:12:21.712Z,14.77
2023-01-23T10:15:08.448Z,18.43
2023-01-23T10:17:45.032Z,14.20
2023-01-23T10:20:30.109Z,17.07
2023-01-23T10:23:11.922Z,16.03
2023-01-23T10:25:42.066Z,14.57
2023-01-23T10:28:23.186Z,16.00
2023-01-23T10:30:56.160Z,11.63
2023-01-23T10:33:35.044Z,11.73
2023-01-23T10:36:07.685Z,13.47
2023-01-23T10:38:42.472Z,14.27
2023-01-23T10:41:15.059Z,13.73
2023-01-23T10:43:43.535Z,12.53
2023-01-23T10:46:13.638Z,13.47
2023-01-23T10:48:45.572Z,14.03
2023-01-23T10:51:36.733Z,13.23
2023-01-23T10:54:16.994Z,12.83
2023-01-23T10:56:58.195Z,11.03
2023-01-23T10:59:32.634Z,12.43
2023-01-23T11:02:03.860Z,11.50
2023-01-23T11:04:37.078Z,11.97
2023-01-23T11:07:10.591Z,13.27
2023-01-23T11:09:51.103Z,12.33
2023-01-23T11:12:21.478Z,11.33
2023-01-23T11:14:49.671Z,12.67
2023-01-23T11:17:21.699Z,10.77
2023-01-23T11:19:54.272Z,13.33
2023-01-23T11:22:30.213Z,10.83
2023-01-23T11:24:58.910Z,10.80
2023-01-23T11:27:29.763Z,13.80
2023-01-23T11:30:18.070Z,11.17
2023-01-23T11:32:55.117Z,11.33
2023-01-23T11:35:30.544Z,11.20
2023-01-23T11:38:02.467Z,12.13
2023-01-23T11:40:30.311Z,12.60
2023-01-23T11:42:58.237Z,8.87
2023-01-23T11:45:40.154Z,11.73
2023-01-23T11:48:23.835Z,11.53
2023-01-23T11:51:01.277Z,13.13
2023-01-23T11:53:42.880Z,10.93
2023-01-23T11:56:26.373Z,12.33
2023-01-23T11:59:16.842Z,10.07
2023-01-23T12:02:03.011Z,11.50
2023-01-23T12:04:44.365Z,10.30
2023-01-23T12:07:20.922Z,12.07
2023-01-23T12:10:19.759Z,12.47
2023-01-23T12:13:00.912Z,12.73
2023-01-23T12:15:38.699Z,11.53
2023-01-23T12:18:19.585Z,12.53
2023-01-23T12:20:57.828Z,14.27
2023-01-23T12:23:46.361Z,11.47
2023-01-23T12:26:16.168Z,10.10
2023-01-23T12:29:06.322Z,12.63
2023-01-23T12:31:45.902Z,11.73
2023-01-23T12:34:28.746Z,10.40
2023-01-23T12:37:29.122Z,8.57
2023-01-23T12:40:11.332Z,10.17
2023-01-23T12:42:45.260Z,10.53
2023-01-23T12:45:23.585Z,12.13
2023-01-23T12:48:00.955Z,13.47
2023-01-23T12:50:38.006Z,10.90
2023-01-23T12:53:10.945Z,10.83
2023-01-23T12:55:47.414Z,11.47
2023-01-23T12:58:17.858Z,9.43
2023-01-23T13:01:06.265Z,10.57
2023-01-23T13:04:12.720Z,9.47
2023-01-23T13:06:51.985Z,10.03
2023-01-23T13:09:30.455Z,9.23
2023-01-23T13:12:08.134Z,9.53
2023-01-23T13:17:48.114Z,9.07
2023-01-23T13:20:46.581Z,9.57
2023-01-23T13:23:38.302Z,11.50
2023-01-23T13:26:36.154Z,10.03
2023-01-23T13:29:07.632Z,9.93
2023-01-23T13:31:40.210Z,11.03
2023-01-23T13:34:36.050Z,10.73
2023-01-23T13:37:51.169Z,12.57
2023-01-23T13:40:23.040Z,9.97
2023-01-23T13:42:51.117Z,7.93
2023-01-23T13:45:33.177Z,8.03
2023-01-23T14:22:33.887Z,9.13
2023-01-23T14:25:01.651Z,7.40
2023-01-23T14:27:36.770Z,8.40
2023-01-23T14:30:17.964Z,8.20
2023-01-23T14:32:46.810Z,8.23
2023-01-23T14:35:18.633Z,9.03
2023-01-23T14:37:48.091Z,8.63
2023-01-23T14:40:25.861Z,7.50
2023-01-23T14:42:59.971Z,8.17
2023-01-23T14:45:32.899Z,9.50
2023-01-23T14:48:08.475Z,9.37
2023-01-23T14:50:36.925Z,7.43
2023-01-23T14:53:08.072Z,8.10
2023-01-23T14:55:38.628Z,7.27
2023-01-23T14:58:07.530Z,7.77
2023-01-23T15:00:37.218Z,10.07
2023-01-23T15:03:05.551Z,7.43
2023-01-23T15:05:33.560Z,8.00
2023-01-23T15:08:04.231Z,11.20
2023-01-23T15:10:37.707Z,10.07
2023-01-23T15:13:09.982Z,10.20
2023-01-23T15:15:38.207Z,8.10
2023-01-23T15:18:22.674Z,9.10
2023-01-23T15:20:55.388Z,9.10
2023-01-23T15:23:31.381Z,9.40
2023-01-23T15:26:31.510Z,8.10
2023-01-23T15:29:02.448Z,8.57
2023-01-23T15:31:33.281Z,10.73
2023-01-23T15:34:19.660Z,8.13
2023-01-23T15:36:49.525Z,8.27
2023-01-23T15:39:22.202Z,7.93
2023-01-23T15:41:53.288Z,9.83
2023-01-23T15:44:23.507Z,9.80
2023-01-23T15:46:51.465Z,9.97
2023-01-23T15:49:25.886Z,11.20
2023-01-23T15:51:56.683Z,9.90
2023-01-23T15:54:29.032Z,10.37
2023-01-23T15:57:07.181Z,9.53
2023-01-23T15:59:35.925Z,10.73
2023-01-23T16:02:03.828Z,8.97
2023-01-23T16:04:31.611Z,10.20
2023-01-23T16:07:02.324Z,9.70
2023-01-23T16:09:32.525Z,11.57
2023-01-23T16:12:02.118Z,11.17
2023-01-23T16:14:29.975Z,9.77
2023-01-23T16:17:04.758Z,10.43
2023-01-23T16:19:39.466Z,10.47
2023-01-23T16:22:07.298Z,10.93
2023-01-23T16:24:38.626Z,8.20
2023-01-23T16:27:11.252Z,11.20
2023-01-23T16:29:39.089Z,10.07
2023-01-23T16:32:08.009Z,9.30
2023-01-23T16:34:50.382Z,10.80
2023-01-23T16:37:20.036Z,12.00
2023-01-23T16:39:48.547Z,9.57
2023-01-23T16:42:21.595Z,12.60
2023-01-23T16:44:49.507Z,12.80
2023-01-23T16:47:17.462Z,11.93
2023-01-23T16:49:54.067Z,13.73
2023-01-23T16:52:26.731Z,12.83
2023-01-23T16:54:55.569Z,11.37
2023-01-23T16:57:25.648Z,11.97
2023-01-23T16:59:57.483Z,12.37
2023-01-23T17:02:29.551Z,15.13
2023-01-23T17:04:57.415Z,12.50
2023-01-23T17:07:25.207Z,13.07
2023-01-23T17:09:54.179Z,14.20
2023-01-23T17:12:27.761Z,12.97
2023-01-23T17:14:57.060Z,14.37
2023-01-23T17:17:30.353Z,11.93
2023-01-23T17:19:58.564Z,14.17
2023-01-23T17:22:30.526Z,14.13
2023-01-23T17:24:58.769Z,14.40
2023-01-23T17:27:27.935Z,13.70
2023-01-23T17:29:55.702Z,12.73
2023-01-23T17:32:30.476Z,12.60
2023-01-23T17:35:02.611Z,14.10
2023-01-23T17:37:31.328Z,13.37
2023-01-23T17:39:59.071Z,17.73
2023-01-23T17:42:28.343Z,16.57
2023-01-23T17:44:56.185Z,13.60
2023-01-23T17:47:24.227Z,15.17
2023-01-23T17:49:54.532Z,12.97
2023-01-23T17:52:24.769Z,14.90
2023-01-23T17:54:52.892Z,11.53
2023-01-23T17:57:21.008Z,11.23
2023-01-23T17:59:50.179Z,10.83
2023-01-23T18:02:27.805Z,11.63
2023-01-23T18:04:55.984Z,11.27
2023-01-23T18:07:23.786Z,10.30
2023-01-23T18:09:52.529Z,11.70
2023-01-23T18:12:29.430Z,11.93
2023-01-23T18:15:09.985Z,9.50
2023-01-23T18:17:48.909Z,9.77
2023-01-23T18:20:19.323Z,12.27
2023-01-23T18:22:47.751Z,9.87
2023-01-23T18:25:16.975Z,11.67
2023-01-23T18:27:46.900Z,11.07
2023-01-23T18:30:34.145Z,11.27
2023-01-23T18:33:20.395Z,9.73
2023-01-23T18:36:05.512Z,8.80
2023-01-23T18:38:44.777Z,11.67
2023-01-23T18:41:20.904Z,10.77
2023-01-23T18:43:52.518Z,8.73
2023-01-23T18:46:25.478Z,11.00
2023-01-23T18:48:54.165Z,10.63
2023-01-23T18:51:36.479Z,8.90
2023-01-23T18:54:18.427Z,9.37
2023-01-23T18:56:56.813Z,10.57
2023-01-23T18:59:29.956Z,9.40
2023-01-23T19:02:09.425Z,9.87
2023-01-23T19:04:44.106Z,12.80
2023-01-23T19:07:18.449Z,10.83
2023-01-23T19:09:47.422Z,12.40
2023-01-23T19:12:26.474Z,10.80
2023-01-23T19:15:21.363Z,11.40
2023-01-23T19:18:00.269Z,12.00
2023-01-23T19:20:32.896Z,11.93
2023-01-23T19:23:16.766Z,11.77
2023-01-23T19:25:47.823Z,11.23
2023-01-23T19:28:16.455Z,12.10
2023-01-23T19:30:45.102Z,10.33
2023-01-23T19:33:17.303Z,11.00
2023-01-23T19:35:46.312Z,12.83
2023-01-23T19:38:15.416Z,13.63
2023-01-23T19:40:43.455Z,11.90
2023-01-23T19:43:15.623Z,13.77
2023-01-23T19:45:43.775Z,14.47
2023-01-23T19:48:12.278Z,16.10
2023-01-23T19:50:41.869Z,13.30
2023-01-23T19:53:13.273Z,11.60
2023-01-23T19:55:41.656Z,15.13
2023-01-23T19:58:09.662Z,13.97
2023-01-23T20:00:37.567Z,12.17
2023-01-23T20:03:06.026Z,11.70
2023-01-23T20:05:33.831Z,13.37
2023-01-23T20:08:03.025Z,11.23
2023-01-23T20:10:30.885Z,11.17
2023-01-23T20:12:58.653Z,10.07
2023-01-23T20:15:27.576Z,14.17
2023-01-23T20:17:55.431Z,14.10
2023-01-23T20:20:23.993Z,12.57
2023-01-23T20:22:52.072Z,17.03
2023-01-23T20:25:21.598Z,12.63
2023-01-23T20:27:49.600Z,14.23
2023-01-23T20:30:22.033Z,13.67
2023-01-23T20:32:50.033Z,14.97
2023-01-23T20:35:18.028Z,14.77
2023-01-23T20:37:45.961Z,16.33
2023-01-23T20:40:13.870Z,14.53
2023-01-23T20:42:42.946Z,14.07
2023-01-23T20:45:11.376Z,16.93
2023-01-23T20:47:39.077Z,16.20
2023-01-23T20:50:07.531Z,17.23
2023-01-23T20:52:52.745Z,16.23
2023-01-23T20:55:20.850Z,16.83
2023-01-23T20:58:07.933Z,14.67
2023-01-23T21:00:35.702Z,16.20
2023-01-23T21:03:03.671Z,15.27
2023-01-23T21:05:31.469Z,15.13
2023-01-23T21:07:59.542Z,17.23
2023-01-23T21:10:27.268Z,14.10
2023-01-23T21:12:56.483Z,15.30
2023-01-23T21:15:24.228Z,14.67
2023-01-23T21:17:52.232Z,14.10
2023-01-23T21:20:20.100Z,17.37
2023-01-23T21:22:48.219Z,15.60
2023-01-23T21:25:16.091Z,15.40
2023-01-23T21:27:43.999Z,16.33
2023-01-23T21:30:14.022Z,16.10
2023-01-23T21:32:42.040Z,15.83
2023-01-23T21:35:10.408Z,13.93
2023-01-23T21:37:38.302Z,17.07
2023-01-23T21:40:07.423Z,17.97
2023-01-23T21:42:35.284Z,15.63
2023-01-23T21:45:03.017Z,16.87
2023-01-23T21:47:32.208Z,17.03
2023-01-23T21:49:59.978Z,12.73
2023-01-23T21:52:29.704Z,17.40
2023-01-23T21:54:57.555Z,16.23
2023-01-23T21:57:25.386Z,16.60
2023-01-23T22:00:07.005Z,17.50
2023-01-23T22:02:36.228Z,18.13
2023-01-23T22:05:04.030Z,15.93
2023-01-23T22:07:31.758Z,15.63
2023-01-23T22:09:59.534Z,18.27
2023-01-23T22:12:28.143Z,14.97
2023-01-23T22:14:56.722Z,17.60
2023-01-23T22:17:24.780Z,20.07
2023-01-23T22:19:53.916Z,16.87
2023-01-23T22:22:21.670Z,15.17
2023-01-23T22:24:49.597Z,17.20
2023-01-23T22:27:17.623Z,16.17
2023-01-23T22:29:45.473Z,16.60
2023-01-23T22:32:13.337Z,16.40
2023-01-23T22:34:41.098Z,15.90
2023-01-23T22:37:10.334Z,15.30
2023-01-23T22:39:38.297Z,17.20
2023-01-23T22:42:06.156Z,17.83
2023-01-23T22:44:33.896Z,15.67
2023-01-23T22:47:01.894Z,18.30
2023-01-23T22:49:29.649Z,15.37
2023-01-23T22:51:57.489Z,15.10
2023-01-23T22:54:26.759Z,16.13
2023-01-23T22:56:54.518Z,17.63
2023-01-23T22:59:22.303Z,18.00
2023-01-23T23:01:50.151Z,16.00
2023-01-23T23:04:17.860Z,15.80
2023-01-23T23:06:45.686Z,14.80
2023-01-23T23:09:13.460Z,14.30
2023-01-23T23:11:42.677Z,16.77
2023-01-23T23:14:11.169Z,15.73
2023-01-23T23:16:38.927Z,18.10
2023-01-23T23:19:06.732Z,16.00
2023-01-23T23:21:37.434Z,15.23
2023-01-23T23:24:07.372Z,15.63
2023-01-23T23:26:35.528Z,15.20
2023-01-23T23:29:05.454Z,16.97
2023-01-23T23:31:33.617Z,17.00
2023-01-23T23:34:01.642Z,15.23
2023-01-23T23:36:29.689Z,15.87
2023-01-23T23:38:57.495Z,15.90
2023-01-23T23:41:25.308Z,14.60
2023-01-23T23:43:53.192Z,16.87
2023-01-23T23:46:22.317Z,17.37
2023-01-23T23:48:50.080Z,16.27
2023-01-23T23:51:19.702Z,17.27
2023-01-23T23:53:47.947Z,16.33
2023-01-23T23:56:21.238Z,14.27
2023-01-23T23:58:49.268Z,18.00
